Time;durP1;ratioP1;P1;durP2;ratioP2;P2;SDS_P1;SDS_P2;PMS_P1;PMS_P2;Temp;Humidity;BMP_temperature;BMP_pressure;BME280_temperature;BME280_humidity;BME280_pressure;Samples;Min_cycle;Max_cycle;Signal;HPM_P1;HPM_P2
2023/05/02 00:00:40;;;;;;;0.45;0.45;;;;;;;7.77;100.00;100633.38;7402050;19;20019;-59
2023/05/02 00:03:07;;;;;;;3.20;1.00;;;;;;;7.74;100.00;100650.88;7397618;19;20031;-59
2023/05/02 00:05:33;;;;;;;0.47;0.47;;;;;;;8.24;100.00;100653.84;7396120;19;20502;-59
2023/05/02 00:07:59;;;;;;;2.85;1.52;;;;;;;8.33;100.00;100645.69;7396763;19;20007;-58
2023/05/02 00:10:26;;;;;;;1.10;1.10;;;;;;;8.27;100.00;100639.88;7397677;19;20013;-61
2023/05/02 00:12:52;;;;;;;2.53;0.70;;;;;;;8.91;100.00;100638.72;7396985;19;20016;-59
2023/05/02 00:15:19;;;;;;;1.02;1.02;;;;;;;9.45;100.00;100637.75;7396731;19;20007;-58
2023/05/02 00:17:45;;;;;;;0.50;0.50;;;;;;;9.53;100.00;100628.72;7397499;19;20010;-59
2023/05/02 00:20:11;;;;;;;4.22;0.63;;;;;;;9.99;100.00;100624.31;7401684;19;20021;-59
2023/05/02 00:22:38;;;;;;;0.60;0.60;;;;;;;9.71;100.00;100625.31;7396596;19;20503;-59
2023/05/02 00:25:05;;;;;;;1.23;0.65;;;;;;;9.94;100.00;100622.09;7394839;19;20010;-59
2023/05/02 00:27:32;;;;;;;0.57;0.57;;;;;;;9.87;100.00;100625.16;7400899;19;20006;-59
2023/05/02 00:29:59;;;;;;;2.53;1.02;;;;;;;9.95;100.00;100620.88;7398954;19;20032;-59
2023/05/02 00:32:26;;;;;;;0.70;0.70;;;;;;;10.02;100.00;100630.97;7401286;19;20074;-59
2023/05/02 00:34:53;;;;;;;0.70;0.70;;;;;;;10.30;100.00;100630.75;7392539;19;20431;-59
2023/05/02 00:37:19;;;;;;;0.77;0.75;;;;;;;10.29;100.00;100631.97;7396607;19;20035;-59
2023/05/02 00:39:45;;;;;;;3.80;0.60;;;;;;;10.13;100.00;100623.06;7396762;19;20014;-59
2023/05/02 00:42:11;;;;;;;0.95;0.90;;;;;;;10.39;100.00;100622.47;7396060;19;20028;-59
2023/05/02 00:44:39;;;;;;;3.33;1.00;;;;;;;10.07;100.00;100622.81;7393874;19;20042;-59
2023/05/02 00:47:05;;;;;;;6.47;1.83;;;;;;;10.54;100.00;100620.69;7396263;19;20360;-59
2023/05/02 00:49:32;;;;;;;2.25;1.60;;;;;;;10.56;100.00;100621.00;7398594;19;20070;-59
2023/05/02 00:51:58;;;;;;;1.67;1.23;;;;;;;10.78;100.00;100625.72;7398161;19;20026;-59
2023/05/02 00:54:25;;;;;;;0.50;0.50;;;;;;;10.64;100.00;100625.06;7394480;19;20108;-59
2023/05/02 00:56:51;;;;;;;0.65;0.65;;;;;;;10.87;100.00;100626.53;7397583;19;20010;-58
2023/05/02 00:59:18;;;;;;;1.88;1.77;;;;;;;10.08;100.00;100624.38;7399736;19;20014;-58
2023/05/02 01:01:59;;;;;;;0.82;0.82;;;;;;;9.91;100.00;100623.81;7393559;19;20345;-59
2023/05/02 01:04:41;;;;;;;0.70;0.70;;;;;;;10.44;100.00;100618.28;7395750;19;20007;-59
2023/05/02 01:07:38;;;;;;;2.42;1.42;;;;;;;11.55;100.00;100628.09;7395538;19;20015;-59
2023/05/02 01:10:10;;;;;;;3.53;1.35;;;;;;;11.46;100.00;100625.28;7393978;19;20432;-60
2023/05/02 01:12:53;;;;;;;2.78;1.27;;;;;;;9.56;100.00;100625.06;7393912;19;20460;-59
2023/05/02 01:15:21;;;;;;;2.88;1.23;;;;;;;9.34;100.00;100637.34;7399177;19;20014;-58
2023/05/02 01:17:49;;;;;;;2.92;1.70;;;;;;;9.27;100.00;100643.16;7396000;19;20019;-59
2023/05/02 01:20:22;;;;;;;4.97;1.92;;;;;;;9.18;100.00;100641.81;7393571;19;20012;-59
2023/05/02 01:22:49;;;;;;;0.85;0.80;;;;;;;10.13;100.00;100632.19;7393690;19;20415;-59
2023/05/02 01:25:15;;;;;;;5.78;1.42;;;;;;;10.52;100.00;100639.84;7393457;19;20043;-59
2023/05/02 01:27:57;;;;;;;3.97;1.52;;;;;;;9.26;100.00;100647.94;7394252;19;20013;-60
2023/05/02 01:30:26;;;;;;;5.50;1.65;;;;;;;10.23;100.00;100647.72;7394624;19;20495;-59
2023/05/02 01:32:56;;;;;;;9.32;2.05;;;;;;;9.61;100.00;100643.16;7398765;19;20487;-60
2023/05/02 01:35:25;;;;;;;8.85;2.17;;;;;;;9.03;100.00;100646.28;7394926;19;20021;-59
2023/05/02 01:37:53;;;;;;;8.23;1.65;;;;;;;9.54;100.00;100651.75;7395187;19;20090;-60
2023/05/02 01:40:21;;;;;;;1.23;0.75;;;;;;;9.34;100.00;100651.22;7393957;19;20080;-60
2023/05/02 01:42:50;;;;;;;3.55;1.40;;;;;;;9.19;100.00;100648.16;7393184;19;20339;-58
2023/05/02 01:45:18;;;;;;;8.60;2.25;;;;;;;10.84;100.00;100648.97;7392781;19;20037;-59
2023/05/02 01:47:45;;;;;;;6.20;1.58;;;;;;;9.40;100.00;100636.31;7396267;19;20011;-60
2023/05/02 01:50:19;;;;;;;1.73;1.50;;;;;;;9.92;100.00;100644.81;7393463;19;20014;-59
2023/05/02 01:52:48;;;;;;;2.53;1.65;;;;;;;9.75;100.00;100646.22;7392575;19;20348;-59
2023/05/02 01:55:16;;;;;;;8.70;2.30;;;;;;;9.54;100.00;100657.31;7393901;19;20014;-60
2023/05/02 01:57:45;;;;;;;4.32;1.85;;;;;;;9.96;100.00;100655.06;7393438;19;20018;-59
2023/05/02 02:00:15;;;;;;;8.13;2.78;;;;;;;9.94;100.00;100656.28;7395092;19;20449;-59
2023/05/02 02:02:44;;;;;;;4.43;2.58;;;;;;;11.59;100.00;100636.28;7396548;19;20015;-59
2023/05/02 02:05:12;;;;;;;5.72;1.75;;;;;;;12.53;100.00;100633.31;7391365;19;20006;-60
2023/05/02 02:07:39;;;;;;;2.30;1.67;;;;;;;12.37;100.00;100636.44;7393858;19;20019;-60
2023/05/02 02:10:06;;;;;;;5.43;2.63;;;;;;;12.71;100.00;100638.84;7393589;19;20014;-59
2023/05/02 02:12:47;;;;;;;2.17;1.33;;;;;;;12.00;100.00;100644.09;7396167;19;20370;-59
2023/05/02 02:15:33;;;;;;;2.45;1.00;;;;;;;11.31;100.00;100649.44;7393440;19;20018;-59
2023/05/02 02:18:04;;;;;;;12.75;3.53;;;;;;;11.95;100.00;100650.31;7394598;19;20025;-60
2023/05/02 02:20:31;;;;;;;4.47;2.27;;;;;;;10.05;100.00;100647.53;7392452;19;20366;-59
2023/05/02 02:23:00;;;;;;;3.03;1.90;;;;;;;10.59;100.00;100653.50;7393323;19;20279;-59
2023/05/02 02:25:27;;;;;;;4.88;3.00;;;;;;;10.12;100.00;100652.88;7391588;19;20036;-60
2023/05/02 02:27:53;;;;;;;1.33;1.00;;;;;;;9.71;100.00;100658.69;7392575;19;20019;-60
2023/05/02 02:30:20;;;;;;;2.92;1.08;;;;;;;9.77;100.00;100673.59;7392953;19;20024;-59
2023/05/02 02:32:46;;;;;;;6.70;3.63;;;;;;;11.13;100.00;100654.97;7397374;19;20022;-59
2023/05/02 02:35:12;;;;;;;3.72;1.95;;;;;;;11.69;100.00;100660.22;7393172;19;20010;-60
2023/05/02 02:37:57;;;;;;;3.05;1.42;;;;;;;11.80;100.00;100657.75;7392535;19;20380;-60
2023/05/02 02:40:27;;;;;;;2.97;1.52;;;;;;;11.84;100.00;100667.53;7390471;19;20108;-59
2023/05/02 02:43:06;;;;;;;8.38;1.95;;;;;;;11.60;100.00;100666.53;7391967;19;20062;-60
2023/05/02 02:45:39;;;;;;;12.88;2.13;;;;;;;10.84;100.00;100672.03;7394103;19;20014;-59
2023/05/02 02:48:26;;;;;;;5.50;1.40;;;;;;;12.45;100.00;100680.34;7393417;19;20499;-59
2023/05/02 02:51:08;;;;;;;6.20;2.88;;;;;;;12.82;100.00;100679.00;7391082;19;20014;-59
2023/05/02 02:53:53;;;;;;;;;;;;;;;12.28;100.00;100678.38;7391104;19;20344;-59
2023/05/02 02:56:27;;;;;;;1.92;1.80;;;;;;;11.98;100.00;100680.06;7392765;19;19919;-59
2023/05/02 02:59:04;;;;;;;7.13;2.53;;;;;;;11.62;100.00;100685.59;7400616;19;20006;-59
2023/05/02 03:01:31;;;;;;;10.40;2.60;;;;;;;9.25;100.00;100692.84;7402073;19;20066;-59
2023/05/02 03:03:58;;;;;;;9.10;1.52;;;;;;;8.76;100.00;100692.38;7398290;19;20566;-59
2023/05/02 03:06:26;;;;;;;6.00;1.38;;;;;;;8.61;100.00;100703.13;7396498;19;20014;-59
2023/05/02 03:08:53;;;;;;;5.22;2.75;;;;;;;8.58;100.00;100701.22;7401200;19;20027;-59
2023/05/02 03:11:27;;;;;;;6.38;2.35;;;;;;;8.52;100.00;100707.78;7398411;19;20070;-59
2023/05/02 03:13:53;;;;;;;15.70;2.30;;;;;;;8.49;100.00;100712.19;7399078;19;20011;-59
2023/05/02 03:16:40;;;;;;;6.47;2.75;;;;;;;8.65;100.00;100714.13;7396927;19;20007;-59
2023/05/02 03:19:10;;;;;;;6.43;3.47;;;;;;;11.08;100.00;100694.59;7403311;19;20035;-59
2023/05/02 03:21:37;;;;;;;8.68;2.97;;;;;;;11.83;100.00;100699.47;7397784;19;20036;-59
2023/05/02 03:24:11;;;;;;;9.63;3.03;;;;;;;12.05;100.00;100700.09;7399809;19;20031;-59
2023/05/02 03:26:37;;;;;;;3.85;2.17;;;;;;;12.34;100.00;100693.25;7401309;19;20013;-59
2023/05/02 03:29:07;;;;;;;3.78;1.88;;;;;;;12.41;100.00;100698.53;7402218;19;20014;-59
2023/05/02 03:31:38;;;;;;;12.27;4.18;;;;;;;11.31;100.00;100696.84;7398869;19;20007;-59
2023/05/02 03:34:05;;;;;;;7.13;2.58;;;;;;;10.80;100.00;100693.69;7397048;19;20381;-59
2023/05/02 03:36:31;;;;;;;6.53;2.05;;;;;;;10.32;100.00;100708.25;7396361;19;20017;-59
2023/05/02 03:38:58;;;;;;;8.63;3.50;;;;;;;11.41;100.00;100707.56;7399733;19;20044;-59
2023/05/02 03:41:24;;;;;;;11.55;3.25;;;;;;;12.02;100.00;100712.19;7396706;19;20021;-59
2023/05/02 03:43:57;;;;;;;3.05;1.95;;;;;;;11.28;100.00;100720.06;7396712;19;20506;-59
2023/05/02 03:46:25;;;;;;;5.07;3.78;;;;;;;12.19;100.00;100727.38;7398339;19;20014;-60
2023/05/02 03:48:52;;;;;;;4.97;1.73;;;;;;;12.13;100.00;100729.25;7399661;19;20467;-59
2023/05/02 03:51:18;;;;;;;4.80;1.73;;;;;;;12.83;100.00;100716.13;7397780;19;20022;-59
2023/05/02 03:53:49;;;;;;;17.00;4.40;;;;;;;12.95;100.00;100717.94;7394991;19;20021;-59
2023/05/02 03:56:20;;;;;;;3.13;1.52;;;;;;;10.64;100.00;100722.53;7398047;19;20456;-59
2023/05/02 03:58:53;;;;;;;9.13;2.20;;;;;;;12.52;100.00;100726.75;7400016;19;20388;-59
2023/05/02 04:01:23;;;;;;;2.47;2.08;;;;;;;11.84;100.00;100744.91;7396004;19;20015;-59
2023/05/02 04:03:51;;;;;;;2.67;1.55;;;;;;;9.73;100.00;100748.03;7395188;19;20015;-59
2023/05/02 04:06:19;;;;;;;3.75;2.03;;;;;;;10.26;100.00;100747.03;7393668;19;20007;-60
2023/05/02 04:08:51;;;;;;;5.90;2.03;;;;;;;10.93;100.00;100752.13;7398835;19;20015;-59
2023/05/02 04:11:18;;;;;;;2.30;2.10;;;;;;;9.16;100.00;100760.19;7399643;19;20411;-59
2023/05/02 04:13:44;;;;;;;1.23;1.13;;;;;;;9.09;100.00;100752.88;7395528;19;20017;-59
2023/05/02 04:16:11;;;;;;;2.20;1.67;;;;;;;9.24;100.00;100760.75;7395515;19;20368;-59
2023/05/02 04:18:38;;;;;;;3.22;1.92;;;;;;;9.16;100.00;100763.75;7397627;19;20018;-59
2023/05/02 04:21:08;;;;;;;4.38;1.33;;;;;;;9.61;100.00;100757.19;7395611;19;20010;-60
2023/05/02 04:23:35;;;;;;;4.20;1.83;;;;;;;9.56;100.00;100760.53;7395898;19;20039;-59
2023/05/02 04:26:02;;;;;;;5.80;2.80;;;;;;;9.74;100.00;100763.50;7397505;19;20014;-59
2023/05/02 04:28:42;;;;;;;4.32;2.72;;;;;;;9.61;100.00;100768.31;7397952;19;20352;-59
2023/05/02 04:31:10;;;;;;;7.40;2.25;;;;;;;9.00;100.00;100758.31;7396382;19;20078;-59
2023/05/02 04:33:37;;;;;;;3.17;1.95;;;;;;;8.83;100.00;100762.38;7395878;19;20119;-60
2023/05/02 04:36:03;;;;;;;2.85;2.22;;;;;;;9.37;100.00;100758.75;7394906;19;20007;-59
2023/05/02 04:38:31;;;;;;;6.80;1.30;;;;;;;10.13;100.00;100753.88;7396499;19;20010;-59
2023/05/02 04:40:58;;;;;;;14.32;2.22;;;;;;;11.16;100.00;100749.59;7393593;19;20010;-59
2023/05/02 04:43:32;;;;;;;4.03;1.75;;;;;;;11.98;100.00;100756.22;7392886;19;20018;-59
2023/05/02 04:46:01;;;;;;;11.65;2.65;;;;;;;11.71;100.00;100758.19;7392614;19;20010;-59
2023/05/02 04:48:32;;;;;;;6.78;2.95;;;;;;;11.81;100.00;100763.34;7398784;19;20362;-59
2023/05/02 04:50:58;;;;;;;11.68;2.35;;;;;;;11.80;100.00;100756.19;7395256;19;20011;-59
2023/05/02 04:53:25;;;;;;;8.40;2.55;;;;;;;11.61;100.00;100760.16;7394082;19;20043;-59
2023/05/02 04:55:52;;;;;;;3.10;1.88;;;;;;;11.78;100.00;100764.25;7394949;19;20015;-59
2023/05/02 04:58:19;;;;;;;6.65;2.50;;;;;;;12.21;100.00;100768.03;7394750;19;20077;-59
2023/05/02 05:00:49;;;;;;;7.45;1.30;;;;;;;11.83;100.00;100760.84;7393614;19;20062;-59
2023/05/02 05:03:16;;;;;;;10.10;1.73;;;;;;;12.21;100.00;100756.88;7396208;19;20472;-59
2023/05/02 05:05:42;;;;;;;3.88;2.45;;;;;;;10.18;100.00;100761.66;7396322;19;20359;-59
2023/05/02 05:08:13;;;;;;;5.55;2.97;;;;;;;11.15;100.00;100761.22;7397682;19;20010;-59
2023/05/02 05:10:40;;;;;;;16.70;3.20;;;;;;;12.43;100.00;100763.09;7393198;19;20031;-60
2023/05/02 05:13:07;;;;;;;5.10;1.92;;;;;;;11.59;100.00;100768.19;7393492;19;20082;-59
2023/05/02 05:15:33;;;;;;;6.72;2.10;;;;;;;9.79;100.00;100769.28;7393038;19;20031;-59
2023/05/02 05:18:01;;;;;;;14.80;2.03;;;;;;;10.41;100.00;100770.34;7395090;19;20020;-59
2023/05/02 05:20:27;;;;;;;8.95;2.55;;;;;;;11.66;100.00;100767.91;7392005;19;20483;-60
2023/05/02 05:22:57;;;;;;;6.97;2.28;;;;;;;10.68;100.00;100767.75;7393530;19;20011;-59
2023/05/02 05:25:26;;;;;;;2.20;1.65;;;;;;;9.31;100.00;100774.44;7393294;19;20025;-60
2023/05/02 05:27:56;;;;;;;8.55;2.88;;;;;;;10.05;100.00;100769.22;7398284;19;20019;-59
2023/05/02 05:30:24;;;;;;;2.53;2.07;;;;;;;11.00;100.00;100769.34;7394031;19;20017;-59
2023/05/02 05:32:50;;;;;;;2.28;1.65;;;;;;;11.36;100.00;100774.31;7397289;19;20014;-59
2023/05/02 05:35:16;;;;;;;5.40;2.70;;;;;;;11.62;100.00;100784.03;7393411;19;20014;-59
2023/05/02 05:37:43;;;;;;;4.05;2.42;;;;;;;11.59;100.00;100784.94;7393716;19;20035;-60
2023/05/02 05:40:11;;;;;;;7.18;2.38;;;;;;;11.79;100.00;100788.13;7392358;19;20040;-59
2023/05/02 05:42:40;;;;;;;2.92;1.75;;;;;;;10.79;100.00;100792.44;7392992;19;20031;-59
2023/05/02 05:45:12;;;;;;;5.20;2.15;;;;;;;11.80;100.00;100792.47;7391960;19;20010;-59
2023/05/02 05:47:39;;;;;;;3.65;1.58;;;;;;;11.94;100.00;100805.84;7391988;19;20002;-59
2023/05/02 05:50:06;;;;;;;3.15;1.30;;;;;;;10.56;100.00;100810.38;7397795;19;20070;-59
2023/05/02 05:52:32;;;;;;;3.85;2.72;;;;;;;11.30;100.00;100823.56;7393146;19;20022;-59
2023/05/02 05:55:00;;;;;;;6.10;2.88;;;;;;;9.21;100.00;100820.00;7395756;19;20018;-59
2023/05/02 05:57:29;;;;;;;1.15;0.95;;;;;;;9.21;100.00;100823.56;7395880;19;20036;-59
2023/05/02 05:59:56;;;;;;;1.30;1.20;;;;;;;10.08;100.00;100813.63;7396730;19;20082;-59
2023/05/02 06:02:22;;;;;;;3.05;1.48;;;;;;;10.25;100.00;100812.28;7391224;19;20014;-59
2023/05/02 06:04:48;;;;;;;16.55;2.70;;;;;;;10.90;100.00;100817.13;7391736;19;20356;-59
2023/05/02 06:07:17;;;;;;;5.38;2.10;;;;;;;11.49;100.00;100808.47;7390972;19;20014;-59
2023/05/02 06:09:44;;;;;;;7.03;2.17;;;;;;;10.68;100.00;100810.78;7391306;19;20014;-59
2023/05/02 06:12:11;;;;;;;1.38;1.25;;;;;;;10.07;100.00;100817.63;7394935;19;20014;-59
2023/05/02 06:14:38;;;;;;;3.50;1.75;;;;;;;10.45;100.00;100820.34;7395099;19;20018;-59
2023/05/02 06:17:04;;;;;;;11.55;1.20;;;;;;;9.57;100.00;100823.28;7391752;19;20031;-59
2023/05/02 06:19:32;;;;;;;3.17;1.20;;;;;;;9.06;100.00;100825.19;7395849;19;20014;-59
2023/05/02 06:21:59;;;;;;;2.88;1.85;;;;;;;8.99;100.00;100834.53;7396453;19;20044;-63
2023/05/02 06:24:25;;;;;;;3.03;1.63;;;;;;;9.28;100.00;100834.47;7392600;19;20450;-63
2023/05/02 06:26:51;;;;;;;2.20;1.50;;;;;;;9.62;100.00;100839.38;7395972;19;20006;-63
2023/05/02 06:29:17;;;;;;;2.60;1.45;;;;;;;9.20;100.00;100835.91;7395501;19;20014;-63
2023/05/02 06:31:43;;;;;;;3.17;2.20;;;;;;;9.60;100.00;100844.59;7397793;19;20082;-63
2023/05/02 06:34:09;;;;;;;1.85;0.65;;;;;;;10.27;100.00;100840.44;7401454;19;20018;-63
2023/05/02 06:36:36;;;;;;;1.38;1.17;;;;;;;9.79;100.00;100843.59;7401776;19;20544;-63
2023/05/02 06:39:02;;;;;;;2.33;1.30;;;;;;;9.21;100.00;100842.22;7403665;19;20463;-63
2023/05/02 06:41:28;;;;;;;5.40;1.52;;;;;;;9.28;100.00;100844.81;7400746;19;20492;-63
2023/05/02 06:43:54;;;;;;;2.33;0.95;;;;;;;9.22;100.00;100854.91;7400881;19;20014;-63
2023/05/02 06:46:20;;;;;;;2.50;2.03;;;;;;;10.15;100.00;100838.47;7397654;19;20014;-63
2023/05/02 06:48:47;;;;;;;3.50;1.10;;;;;;;11.27;100.00;100846.78;7403569;19;20022;-63
2023/05/02 06:51:14;;;;;;;1.20;0.60;;;;;;;11.49;100.00;100847.53;7403353;19;20010;-63
2023/05/02 06:53:40;;;;;;;7.53;2.20;;;;;;;10.33;100.00;100851.81;7399564;19;20007;-63
2023/05/02 06:56:06;;;;;;;1.05;1.02;;;;;;;12.38;100.00;100850.31;7401224;19;20026;-63
2023/05/02 06:58:33;;;;;;;3.83;1.40;;;;;;;12.74;100.00;100844.72;7401806;19;20078;-63
2023/05/02 07:00:59;;;;;;;1.80;1.33;;;;;;;12.74;100.00;100858.69;7399283;19;20043;-63
2023/05/02 07:03:25;;;;;;;3.90;1.98;;;;;;;11.01;100.00;100864.88;7397981;19;20488;-63
2023/05/02 07:05:51;;;;;;;5.00;1.38;;;;;;;11.72;100.00;100874.94;7398389;19;20480;-63
2023/05/02 07:08:17;;;;;;;5.70;1.35;;;;;;;10.50;100.00;100881.78;7401112;19;20043;-63
2023/05/02 07:10:43;;;;;;;5.57;1.10;;;;;;;11.20;100.00;100877.72;7399372;19;20019;-63
2023/05/02 07:13:10;;;;;;;11.15;2.15;;;;;;;12.19;100.00;100871.84;7399531;19;20014;-63
2023/05/02 07:15:36;;;;;;;2.75;1.48;;;;;;;12.28;100.00;100885.06;7397331;19;20023;-63
2023/05/02 07:18:02;;;;;;;2.10;1.90;;;;;;;13.83;100.00;100884.47;7400536;19;20013;-63
2023/05/02 07:20:28;;;;;;;5.30;1.05;;;;;;;12.65;100.00;100893.00;7398573;19;20021;-63
2023/05/02 07:22:55;;;;;;;1.90;0.88;;;;;;;12.67;100.00;100898.13;7397657;19;20014;-63
2023/05/02 07:25:21;;;;;;;1.83;1.05;;;;;;;12.37;100.00;100887.84;7398201;19;20014;-63
2023/05/02 07:27:47;;;;;;;1.95;0.70;;;;;;;12.59;100.00;100889.28;7398897;19;20015;-63
2023/05/02 07:30:13;;;;;;;2.60;1.17;;;;;;;11.53;100.00;100892.78;7398663;19;20014;-63
2023/05/02 07:32:39;;;;;;;1.80;1.38;;;;;;;12.18;100.00;100887.03;7402525;19;20011;-63
2023/05/02 07:35:06;;;;;;;3.33;1.08;;;;;;;12.95;100.00;100885.72;7398783;19;20006;-63
2023/05/02 07:37:36;;;;;;;6.43;1.02;;;;;;;13.78;100.00;100895.50;7398534;19;20035;-63
2023/05/02 07:40:03;;;;;;;4.20;1.20;;;;;;;11.93;100.00;100899.19;7398421;19;20019;-63
2023/05/02 07:42:30;;;;;;;1.35;1.02;;;;;;;11.10;100.00;100904.75;7398757;19;20039;-63
2023/05/02 07:44:57;;;;;;;5.15;1.67;;;;;;;12.79;100.00;100894.44;7396139;19;20013;-63
2023/05/02 07:47:25;;;;;;;5.93;1.75;;;;;;;13.67;100.00;100899.59;7398271;19;20348;-63
2023/05/02 07:49:52;;;;;;;3.35;1.98;;;;;;;13.12;100.00;100909.38;7399408;19;20039;-63
2023/05/02 07:52:19;;;;;;;4.32;0.85;;;;;;;13.84;100.00;100899.25;7398466;19;20047;-63
2023/05/02 07:54:47;;;;;;;1.67;1.42;;;;;;;13.94;100.00;100904.34;7398196;19;20002;-63
2023/05/02 07:57:13;;;;;;;3.13;1.33;;;;;;;13.95;100.00;100897.47;7401416;19;20015;-63
2023/05/02 07:59:39;;;;;;;2.50;1.20;;;;;;;14.43;100.00;100899.13;7397159;19;20014;-63
2023/05/02 08:02:06;;;;;;;1.20;0.82;;;;;;;14.68;100.00;100897.88;7396874;19;20015;-63
2023/05/02 08:04:33;;;;;;;1.02;0.93;;;;;;;14.20;100.00;100894.25;7396966;19;20066;-63
2023/05/02 08:07:00;;;;;;;1.75;0.85;;;;;;;12.50;100.00;100894.06;7397145;19;20066;-63
2023/05/02 08:09:26;;;;;;;2.70;1.90;;;;;;;12.67;100.00;100892.53;7401825;19;20019;-63
2023/05/02 08:11:52;;;;;;;0.75;0.75;;;;;;;14.24;100.00;100885.66;7396993;19;20337;-63
2023/05/02 08:14:18;;;;;;;1.58;0.95;;;;;;;12.01;100.00;100894.91;7397282;19;20337;-63
2023/05/02 08:16:44;;;;;;;8.57;1.25;;;;;;;12.68;100.00;100899.69;7396953;19;20006;-63
2023/05/02 08:19:10;;;;;;;5.32;1.50;;;;;;;12.93;100.00;100900.16;7399278;19;20014;-63
2023/05/02 08:21:37;;;;;;;2.22;0.50;;;;;;;13.97;100.00;100899.81;7397475;19;20027;-63
2023/05/02 08:24:03;;;;;;;6.82;1.85;;;;;;;14.36;100.00;100887.47;7397224;19;20018;-63
2023/05/02 08:26:29;;;;;;;1.85;0.85;;;;;;;14.30;100.00;100895.00;7395787;19;20040;-63
2023/05/02 08:28:55;;;;;;;1.25;1.00;;;;;;;14.03;100.00;100895.13;7399134;19;20047;-63
2023/05/02 08:31:22;;;;;;;0.65;0.65;;;;;;;14.56;100.00;100890.47;7398441;19;20011;-62
2023/05/02 08:33:48;;;;;;;4.65;1.38;;;;;;;12.70;100.00;100900.00;7397087;19;20123;-63
2023/05/02 08:36:15;;;;;;;4.63;0.60;;;;;;;11.63;100.00;100890.84;7394424;19;20014;-63
2023/05/02 08:38:42;;;;;;;4.35;1.70;;;;;;;11.36;100.00;100910.97;7396897;19;20006;-63
2023/05/02 08:41:13;;;;;;;2.15;1.08;;;;;;;11.37;100.00;100912.53;7396292;19;20040;-62
2023/05/02 08:43:40;;;;;;;0.28;0.20;;;;;;;13.12;100.00;100908.59;7396430;19;20011;-63
2023/05/02 08:46:08;;;;;;;0.88;0.82;;;;;;;11.87;100.00;100906.63;7395234;19;20081;-63
2023/05/02 08:48:39;;;;;;;6.28;1.70;;;;;;;11.55;100.00;100911.84;7399565;19;20015;-62
2023/05/02 08:51:10;;;;;;;3.33;0.95;;;;;;;11.63;100.00;100902.75;7395969;19;20006;-63
2023/05/02 08:53:37;;;;;;;1.02;0.75;;;;;;;11.92;100.00;100902.47;7396361;19;20015;-62
2023/05/02 08:56:06;;;;;;;6.68;1.08;;;;;;;12.18;100.00;100903.78;7394983;19;20020;-63
2023/05/02 08:58:34;;;;;;;1.67;0.63;;;;;;;12.44;100.00;100904.31;7398195;19;20010;-63
2023/05/02 09:01:02;;;;;;;0.40;0.40;;;;;;;12.75;100.00;100905.00;7395201;19;20010;-63
2023/05/02 09:03:33;;;;;;;3.10;0.45;;;;;;;12.70;100.00;100902.78;7396166;19;20031;-63
2023/05/02 09:06:09;;;;;;;;;;;;;;;13.47;100.00;100901.38;7395609;19;20499;-63
2023/05/02 09:08:36;;;;;;;1.95;0.65;;;;;;;14.55;100.00;100905.75;7396875;19;19930;-62
2023/05/02 09:11:03;;;;;;;0.98;0.63;;;;;;;13.87;100.00;100907.47;7393915;19;20018;-63
2023/05/02 09:13:38;;;;;;;0.60;0.52;;;;;;;13.06;100.00;100911.22;7393981;19;20010;-63
2023/05/02 09:16:15;;;;;;;0.60;0.38;;;;;;;13.03;100.00;100900.94;7428363;19;20332;-62
2023/05/02 09:19:00;;;;;;;0.85;0.60;;;;;;;13.04;100.00;100908.06;7430466;19;20074;-62
2023/05/02 09:21:36;;;;;;;4.78;0.93;;;;;;;13.07;100.00;100907.19;7427017;19;20022;-62
2023/05/02 09:24:19;;;;;;;0.68;0.43;;;;;;;13.30;100.00;100912.13;7427843;19;20023;-62
2023/05/02 09:27:03;;;;;;;1.25;0.52;;;;;;;13.41;100.00;100906.81;7428083;19;20013;-62
2023/05/02 09:29:34;;;;;;;1.98;0.70;;;;;;;13.76;100.00;100906.41;7431456;19;20018;-61
2023/05/02 09:32:02;;;;;;;1.95;0.70;;;;;;;13.68;100.00;100911.59;7428121;19;20014;-62
2023/05/02 09:34:29;;;;;;;2.50;0.75;;;;;;;13.48;100.00;100919.72;7426438;19;20066;-62
2023/05/02 09:36:57;;;;;;;0.30;0.13;;;;;;;13.47;100.00;100924.53;7427919;19;20022;-62
2023/05/02 09:39:25;;;;;;;4.35;0.80;;;;;;;13.58;100.00;100913.63;7432545;19;20018;-63
2023/05/02 09:41:51;;;;;;;3.42;0.65;;;;;;;13.59;100.00;100923.59;7429116;19;20097;-62
2023/05/02 09:44:19;;;;;;;0.95;0.57;;;;;;;13.90;100.00;100922.56;7427977;19;20011;-63
2023/05/02 09:46:52;;;;;;;7.15;1.08;;;;;;;13.96;100.00;100934.66;7427684;19;20018;-62
2023/05/02 09:49:37;;;;;;;2.50;0.70;;;;;;;14.01;100.00;100939.63;7433704;19;20014;-62
2023/05/02 09:52:20;;;;;;;4.50;0.73;;;;;;;14.12;100.00;100929.44;7429163;19;20022;-62
2023/05/02 09:54:49;;;;;;;0.73;0.45;;;;;;;14.26;100.00;100934.38;7426375;19;20036;-63
2023/05/02 09:57:15;;;;;;;0.63;0.22;;;;;;;14.18;100.00;100935.19;7430857;19;20011;-62
2023/05/02 09:59:53;;;;;;;2.25;0.70;;;;;;;14.50;100.00;100940.03;7427183;19;20006;-63
2023/05/02 10:02:20;;;;;;;1.77;0.40;;;;;;;14.75;100.00;100942.34;7428023;19;20010;-62
2023/05/02 10:04:48;;;;;;;0.45;0.45;;;;;;;14.34;100.00;100946.03;7426731;19;20018;-62
2023/05/02 10:07:16;;;;;;;1.77;0.55;;;;;;;14.61;100.00;100943.09;7425723;19;20010;-62
2023/05/02 10:09:44;;;;;;;0.45;0.43;;;;;;;14.52;100.00;100954.34;7427586;19;20025;-63
2023/05/02 10:12:14;;;;;;;0.35;0.32;;;;;;;15.17;100.00;100948.56;7427561;19;20031;-63
2023/05/02 10:14:49;;;;;;;2.60;0.67;;;;;;;15.36;100.00;100952.00;7427133;19;20011;-63
2023/05/02 10:17:26;;;;;;;0.70;0.40;;;;;;;15.33;100.00;100957.81;7426877;19;20334;-63
2023/05/02 10:19:55;;;;;;;0.77;0.35;;;;;;;15.30;100.00;100965.16;7427739;19;20337;-63
2023/05/02 10:22:22;;;;;;;1.33;0.30;;;;;;;15.29;100.00;100960.03;7427615;19;20347;-63
2023/05/02 10:24:49;;;;;;;0.57;0.55;;;;;;;15.37;100.00;100964.00;7428821;19;20015;-63
2023/05/02 10:27:15;;;;;;;0.50;0.30;;;;;;;15.96;100.00;100965.56;7405702;19;20367;-63
2023/05/02 10:29:42;;;;;;;0.70;0.52;;;;;;;16.72;100.00;100969.34;7398362;19;20006;-63
2023/05/02 10:32:10;;;;;;;2.10;0.45;;;;;;;16.63;100.00;100964.63;7401448;19;20074;-63
2023/05/02 10:34:39;;;;;;;1.33;0.50;;;;;;;17.04;100.00;100956.94;7397362;19;20038;-63
2023/05/02 10:37:05;;;;;;;1.05;0.82;;;;;;;15.68;100.00;100967.16;7398184;19;20007;-64
2023/05/02 10:39:32;;;;;;;1.25;0.52;;;;;;;15.42;100.00;100960.53;7400618;19;20055;-64
2023/05/02 10:42:03;;;;;;;2.15;0.40;;;;;;;15.04;100.00;100967.69;7397134;19;20014;-64
2023/05/02 10:44:37;;;;;;;0.68;0.35;;;;;;;15.69;100.00;100963.09;7398796;19;20030;-58
2023/05/02 10:47:23;;;;;;;1.75;0.55;;;;;;;15.02;100.00;100975.81;7398108;19;20116;-58
2023/05/02 10:49:51;;;;;;;1.70;0.90;;;;;;;14.71;100.00;100969.78;7397632;19;20019;-59
2023/05/02 10:52:28;;;;;;;7.70;0.70;;;;;;;14.84;100.00;100967.53;7397295;19;20066;-59
2023/05/02 11:05:03;;;;;;;1.35;0.63;;;;;;;15.19;100.00;100959.31;7395559;19;20049;-92
2023/05/02 11:07:34;;;;;;;0.63;0.30;;;;;;;15.74;100.00;100959.59;7392880;19;20494;-89
2023/05/02 11:10:38;;;;;;;1.30;0.77;;;;;;;15.90;100.00;100973.16;7401151;19;20026;-86
2023/05/02 11:13:14;;;;;;;0.93;0.32;;;;;;;15.78;100.00;100972.19;7396782;19;20032;-88
2023/05/02 11:19:13;;;;;;;5.32;0.40;;;;;;;17.26;100.00;100957.22;7389590;19;20087;-58
2023/05/02 11:21:43;;;;;;;8.30;0.55;;;;;;;17.93;100.00;100965.06;7396222;19;20017;-58
2023/05/02 11:24:41;;;;;;;1.48;0.88;;;;;;;17.24;100.00;100973.81;7392711;19;20011;-58
2023/05/02 11:27:29;;;;;;;4.32;0.47;;;;;;;16.87;100.00;100975.66;7396555;19;20018;-58
2023/05/02 11:30:07;;;;;;;3.97;0.45;;;;;;;16.45;100.00;100982.47;7391997;19;20015;-58
2023/05/02 11:32:47;;;;;;;0.35;0.35;;;;;;;16.66;100.00;100972.06;7393287;19;20017;-58
2023/05/02 11:35:20;;;;;;;0.85;0.50;;;;;;;16.51;100.00;100969.28;7396017;19;20054;-58
2023/05/02 11:37:53;;;;;;;0.73;0.30;;;;;;;16.48;100.00;100967.41;7392695;19;20011;-58
2023/05/02 11:40:27;;;;;;;6.57;0.50;;;;;;;16.74;100.00;100981.63;7394447;19;20069;-58
2023/05/02 11:43:32;;;;;;;3.72;1.10;;;;;;;16.42;100.00;100980.63;7397162;19;20013;-58